Mount Sterling, KY

2:15 AM EST on February 27, 2017 (GMT -0500)
Downtown | | Change Station

Elev 1001 ft 38.06 °N, 83.95 °W | Updated 34 seconds ago

Overcast
Overcast
43.2 °F
Feels Like 42 °F
N
3.2
Wind Variable Wind from SE

Today
High -- | Low -- °F
--% Chance of Precip.
Yesterday
High -- | Low -- °F
Precip. -- in
Pressure 30.21 in
Visibility 10.0 miles
Clouds Overcast 6000 ft
Windchill 42 °F
Dew Point 24 °F
Humidity 47%
Rainfall 0.00 in
Snow Depth Not available.
7:09 AM 6:27 PM
New Moon, 1% visible
METAR KLEX 270654Z 24011G19KT 10SM OVC060 09/M04 A3020 RMK AO2 SLP230 T00891039 $
Pressure 30.21 in
Visibility 10.0 miles
Clouds Overcast 6000 ft
Windchill 42 °F
Dew Point 24 °F
Humidity 47%
Rainfall 0.00 in
Snow Depth Not available.
7:09 AM 6:27 PM
New Moon, 1% visible
METAR KLEX 270654Z 24011G19KT 10SM OVC060 09/M04 A3020 RMK AO2 SLP230 T00891039 $

Get Your Daily Forecast Email!

Thanks for signing up!

Be on the lookout for a verification email in your inbox.

You'll start receiving the daily forecast at 8 AM.

×

10-Day Weather Forecast

Almanac

Astronomy

Feb. 27, 2017 Rise Set
Actual Time
Civil Twilight
Nautical Twilight
Astronomical Twilight
Moon
Length of Visible Light
Length of Day
Tomorrow will be .
, % of the Moon is Illuminated

Today's Extremes

State Highs State Lows

Community

WunderPhotos

Upload Photos

1,962,540 photos uploaded!

WunderBlog® & News

Nearby

Air Quality

  Air Quality AQ Index Pollutant
Not available.

Snow Depth

Station Depth Elevation

Earthquake Activity

City Distance Mag. Time & Date
Minimum magnitude displayed is 2.5.

Coastal Water Temperatures

Place Temperature

Stations

Nearby Weather Stations

Station Location Temp. Windchill Dew Point Humidity Wind Precip. Elev Updated Type
                   

Watches & Warnings

There are currently no watches in effect.